sensor_id;sensor_type;location;lat;lon;timestamp;P1;durP1;ratioP1;P2;durP2;ratioP2
12956;SDS011;6543;48.836;10.092;2023-02-27T00:01:43;4.20;;;1.43;;
12956;SDS011;6543;48.836;10.092;2023-02-27T00:04:16;3.83;;;1.20;;
12956;SDS011;6543;48.836;10.092;2023-02-27T00:06:51;0.93;;;0.87;;
12956;SDS011;6543;48.836;10.092;2023-02-27T00:09:27;1.80;;;1.30;;
12956;SDS011;6543;48.836;10.092;2023-02-27T00:11:58;3.47;;;1.13;;
12956;SDS011;6543;48.836;10.092;2023-02-27T00:14:28;1.90;;;1.27;;
12956;SDS011;6543;48.836;10.092;2023-02-27T00:17:01;2.30;;;1.10;;
12956;SDS011;6543;48.836;10.092;2023-02-27T00:19:32;2.57;;;1.40;;
12956;SDS011;6543;48.836;10.092;2023-02-27T00:22:05;1.10;;;1.00;;
12956;SDS011;6543;48.836;10.092;2023-02-27T00:24:39;1.43;;;1.10;;
12956;SDS011;6543;48.836;10.092;2023-02-27T00:27:19;0.90;;;0.90;;
12956;SDS011;6543;48.836;10.092;2023-02-27T00:29:59;1.20;;;1.03;;
12956;SDS011;6543;48.836;10.092;2023-02-27T00:32:36;1.23;;;1.03;;
12956;SDS011;6543;48.836;10.092;2023-02-27T00:35:14;2.30;;;1.10;;
12956;SDS011;6543;48.836;10.092;2023-02-27T00:38:03;2.27;;;1.10;;
12956;SDS011;6543;48.836;10.092;2023-02-27T00:40:41;3.07;;;1.47;;
12956;SDS011;6543;48.836;10.092;2023-02-27T00:43:22;3.37;;;1.20;;
12956;SDS011;6543;48.836;10.092;2023-02-27T00:45:51;2.30;;;0.97;;
12956;SDS011;6543;48.836;10.092;2023-02-27T00:48:25;2.77;;;1.30;;
12956;SDS011;6543;48.836;10.092;2023-02-27T00:51:03;8.53;;;1.10;;
12956;SDS011;6543;48.836;10.092;2023-02-27T00:53:35;1.90;;;1.30;;
12956;SDS011;6543;48.836;10.092;2023-02-27T00:56:10;1.17;;;0.93;;
12956;SDS011;6543;48.836;10.092;2023-02-27T00:58:39;2.37;;;1.27;;
12956;SDS011;6543;48.836;10.092;2023-02-27T01:01:14;2.80;;;1.20;;
12956;SDS011;6543;48.836;10.092;2023-02-27T01:03:42;1.60;;;1.23;;
12956;SDS011;6543;48.836;10.092;2023-02-27T01:06:11;1.73;;;1.20;;
12956;SDS011;6543;48.836;10.092;2023-02-27T01:08:51;1.67;;;1.30;;
12956;SDS011;6543;48.836;10.092;2023-02-27T01:11:25;2.80;;;1.20;;
12956;SDS011;6543;48.836;10.092;2023-02-27T01:13:52;1.57;;;1.40;;
12956;SDS011;6543;48.836;10.092;2023-02-27T01:16:28;2.97;;;1.40;;
12956;SDS011;6543;48.836;10.092;2023-02-27T01:18:57;2.97;;;1.27;;
12956;SDS011;6543;48.836;10.092;2023-02-27T01:21:27;2.00;;;1.70;;
12956;SDS011;6543;48.836;10.092;2023-02-27T01:23:58;4.47;;;1.80;;
12956;SDS011;6543;48.836;10.092;2023-02-27T01:26:34;2.30;;;1.63;;
12956;SDS011;6543;48.836;10.092;2023-02-27T01:29:06;1.87;;;1.17;;
12956;SDS011;6543;48.836;10.092;2023-02-27T01:31:36;4.00;;;1.33;;
12956;SDS011;6543;48.836;10.092;2023-02-27T01:34:19;2.33;;;1.40;;
12956;SDS011;6543;48.836;10.092;2023-02-27T01:40:09;4.13;;;2.67;;
12956;SDS011;6543;48.836;10.092;2023-02-27T01:42:56;2.80;;;1.70;;
12956;SDS011;6543;48.836;10.092;2023-02-27T01:45:40;5.73;;;1.30;;
12956;SDS011;6543;48.836;10.092;2023-02-27T01:48:22;2.37;;;2.03;;
12956;SDS011;6543;48.836;10.092;2023-02-27T01:51:20;3.83;;;1.50;;
12956;SDS011;6543;48.836;10.092;2023-02-27T01:54:14;3.60;;;1.50;;
12956;SDS011;6543;48.836;10.092;2023-02-27T01:57:02;8.40;;;1.70;;
12956;SDS011;6543;48.836;10.092;2023-02-27T02:02:41;2.30;;;1.53;;
12956;SDS011;6543;48.836;10.092;2023-02-27T02:05:15;1.43;;;1.30;;
12956;SDS011;6543;48.836;10.092;2023-02-27T02:07:46;4.70;;;1.60;;
12956;SDS011;6543;48.836;10.092;2023-02-27T02:10:29;1.90;;;1.53;;
12956;SDS011;6543;48.836;10.092;2023-02-27T02:13:01;3.60;;;1.30;;
12956;SDS011;6543;48.836;10.092;2023-02-27T02:15:41;3.33;;;1.77;;
12956;SDS011;6543;48.836;10.092;2023-02-27T02:18:40;3.33;;;1.53;;
12956;SDS011;6543;48.836;10.092;2023-02-27T02:27:49;4.63;;;1.57;;
12956;SDS011;6543;48.836;10.092;2023-02-27T02:33:57;1.50;;;1.40;;
12956;SDS011;6543;48.836;10.092;2023-02-27T02:37:05;2.17;;;1.60;;
12956;SDS011;6543;48.836;10.092;2023-02-27T02:42:57;1.93;;;1.70;;
12956;SDS011;6543;48.836;10.092;2023-02-27T02:45:39;4.23;;;1.97;;
12956;SDS011;6543;48.836;10.092;2023-02-27T02:48:15;3.37;;;1.87;;
12956;SDS011;6543;48.836;10.092;2023-02-27T02:51:04;2.83;;;1.77;;
12956;SDS011;6543;48.836;10.092;2023-02-27T02:53:42;2.67;;;1.70;;
12956;SDS011;6543;48.836;10.092;2023-02-27T02:56:27;5.37;;;2.27;;
12956;SDS011;6543;48.836;10.092;2023-02-27T02:59:17;3.07;;;1.70;;
12956;SDS011;6543;48.836;10.092;2023-02-27T03:02:12;2.77;;;2.20;;
12956;SDS011;6543;48.836;10.092;2023-02-27T03:04:47;3.97;;;2.00;;
12956;SDS011;6543;48.836;10.092;2023-02-27T03:07:34;3.53;;;2.20;;
12956;SDS011;6543;48.836;10.092;2023-02-27T03:10:10;4.30;;;1.83;;
12956;SDS011;6543;48.836;10.092;2023-02-27T03:12:51;2.97;;;2.30;;
12956;SDS011;6543;48.836;10.092;2023-02-27T03:15:34;4.23;;;2.13;;
12956;SDS011;6543;48.836;10.092;2023-02-27T03:18:20;2.33;;;1.80;;
12956;SDS011;6543;48.836;10.092;2023-02-27T03:20:53;6.00;;;1.97;;
12956;SDS011;6543;48.836;10.092;2023-02-27T03:23:34;2.93;;;1.50;;
12956;SDS011;6543;48.836;10.092;2023-02-27T03:26:11;5.53;;;2.23;;
12956;SDS011;6543;48.836;10.092;2023-02-27T03:28:47;6.57;;;2.13;;
12956;SDS011;6543;48.836;10.092;2023-02-27T03:31:30;3.07;;;2.50;;
12956;SDS011;6543;48.836;10.092;2023-02-27T03:34:07;2.93;;;1.80;;
12956;SDS011;6543;48.836;10.092;2023-02-27T03:36:52;1.83;;;1.67;;
12956;SDS011;6543;48.836;10.092;2023-02-27T03:39:43;3.20;;;1.73;;
12956;SDS011;6543;48.836;10.092;2023-02-27T03:42:28;2.77;;;2.17;;
12956;SDS011;6543;48.836;10.092;2023-02-27T03:45:31;5.27;;;2.63;;
12956;SDS011;6543;48.836;10.092;2023-02-27T03:48:12;3.27;;;2.30;;
12956;SDS011;6543;48.836;10.092;2023-02-27T03:50:53;6.70;;;1.83;;
12956;SDS011;6543;48.836;10.092;2023-02-27T03:53:40;2.33;;;2.13;;
12956;SDS011;6543;48.836;10.092;2023-02-27T03:56:30;2.03;;;1.77;;
12956;SDS011;6543;48.836;10.092;2023-02-27T03:59:10;3.67;;;2.17;;
12956;SDS011;6543;48.836;10.092;2023-02-27T04:01:45;4.83;;;2.47;;
12956;SDS011;6543;48.836;10.092;2023-02-27T04:04:20;3.53;;;2.30;;
12956;SDS011;6543;48.836;10.092;2023-02-27T04:06:56;2.23;;;2.03;;
12956;SDS011;6543;48.836;10.092;2023-02-27T04:13:14;2.33;;;1.97;;
12956;SDS011;6543;48.836;10.092;2023-02-27T04:18:59;3.50;;;2.20;;
12956;SDS011;6543;48.836;10.092;2023-02-27T04:21:48;5.93;;;2.30;;
12956;SDS011;6543;48.836;10.092;2023-02-27T04:24:46;2.53;;;2.20;;
12956;SDS011;6543;48.836;10.092;2023-02-27T04:27:45;2.53;;;1.97;;
12956;SDS011;6543;48.836;10.092;2023-02-27T04:30:26;6.17;;;2.60;;
12956;SDS011;6543;48.836;10.092;2023-02-27T04:32:56;2.97;;;1.83;;
12956;SDS011;6543;48.836;10.092;2023-02-27T04:35:32;2.47;;;2.07;;
12956;SDS011;6543;48.836;10.092;2023-02-27T04:38:03;3.17;;;2.23;;
12956;SDS011;6543;48.836;10.092;2023-02-27T04:40:35;4.07;;;2.47;;
12956;SDS011;6543;48.836;10.092;2023-02-27T04:43:07;4.87;;;2.83;;
12956;SDS011;6543;48.836;10.092;2023-02-27T04:45:36;4.57;;;2.50;;
12956;SDS011;6543;48.836;10.092;2023-02-27T04:48:08;5.93;;;2.80;;
12956;SDS011;6543;48.836;10.092;2023-02-27T04:50:43;3.87;;;1.63;;
12956;SDS011;6543;48.836;10.092;2023-02-27T04:53:15;5.00;;;2.73;;
12956;SDS011;6543;48.836;10.092;2023-02-27T04:55:48;5.73;;;3.27;;
12956;SDS011;6543;48.836;10.092;2023-02-27T04:58:19;4.27;;;2.57;;
12956;SDS011;6543;48.836;10.092;2023-02-27T05:00:52;5.93;;;2.67;;
12956;SDS011;6543;48.836;10.092;2023-02-27T05:03:24;5.63;;;2.80;;
12956;SDS011;6543;48.836;10.092;2023-02-27T05:05:57;5.33;;;3.07;;
12956;SDS011;6543;48.836;10.092;2023-02-27T05:08:27;4.10;;;2.57;;
12956;SDS011;6543;48.836;10.092;2023-02-27T05:10:59;3.97;;;2.63;;
12956;SDS011;6543;48.836;10.092;2023-02-27T05:13:31;3.67;;;2.63;;
12956;SDS011;6543;48.836;10.092;2023-02-27T05:16:02;3.40;;;2.47;;
12956;SDS011;6543;48.836;10.092;2023-02-27T05:18:34;4.53;;;2.80;;
12956;SDS011;6543;48.836;10.092;2023-02-27T05:21:04;5.27;;;2.60;;
12956;SDS011;6543;48.836;10.092;2023-02-27T05:23:42;6.17;;;2.33;;
12956;SDS011;6543;48.836;10.092;2023-02-27T05:26:21;5.80;;;3.03;;
12956;SDS011;6543;48.836;10.092;2023-02-27T05:28:58;5.83;;;3.00;;
12956;SDS011;6543;48.836;10.092;2023-02-27T05:31:31;6.77;;;3.27;;
12956;SDS011;6543;48.836;10.092;2023-02-27T05:34:07;5.00;;;2.90;;
12956;SDS011;6543;48.836;10.092;2023-02-27T05:36:40;5.80;;;3.40;;
12956;SDS011;6543;48.836;10.092;2023-02-27T05:39:11;3.20;;;2.90;;
12956;SDS011;6543;48.836;10.092;2023-02-27T05:41:40;7.60;;;3.60;;
12956;SDS011;6543;48.836;10.092;2023-02-27T05:44:12;3.33;;;2.97;;
12956;SDS011;6543;48.836;10.092;2023-02-27T05:46:42;3.10;;;2.47;;
12956;SDS011;6543;48.836;10.092;2023-02-27T05:49:14;5.13;;;2.93;;
12956;SDS011;6543;48.836;10.092;2023-02-27T05:51:47;4.77;;;3.00;;
12956;SDS011;6543;48.836;10.092;2023-02-27T05:54:20;4.40;;;2.97;;
12956;SDS011;6543;48.836;10.092;2023-02-27T05:56:52;2.73;;;2.40;;
12956;SDS011;6543;48.836;10.092;2023-02-27T05:59:24;2.57;;;2.37;;
12956;SDS011;6543;48.836;10.092;2023-02-27T06:01:56;5.57;;;3.10;;
12956;SDS011;6543;48.836;10.092;2023-02-27T06:04:23;3.67;;;3.13;;
12956;SDS011;6543;48.836;10.092;2023-02-27T06:06:52;4.57;;;2.80;;
12956;SDS011;6543;48.836;10.092;2023-02-27T06:09:21;4.93;;;3.07;;
12956;SDS011;6543;48.836;10.092;2023-02-27T06:11:47;3.30;;;2.50;;
12956;SDS011;6543;48.836;10.092;2023-02-27T06:14:14;3.40;;;2.90;;
12956;SDS011;6543;48.836;10.092;2023-02-27T06:16:41;5.87;;;3.07;;
12956;SDS011;6543;48.836;10.092;2023-02-27T06:19:08;3.30;;;2.70;;
12956;SDS011;6543;48.836;10.092;2023-02-27T06:21:35;3.13;;;2.43;;
12956;SDS011;6543;48.836;10.092;2023-02-27T06:24:03;4.27;;;2.93;;
12956;SDS011;6543;48.836;10.092;2023-02-27T06:26:30;3.73;;;2.50;;
12956;SDS011;6543;48.836;10.092;2023-02-27T06:28:57;4.43;;;3.13;;
12956;SDS011;6543;48.836;10.092;2023-02-27T06:31:24;5.37;;;2.97;;
12956;SDS011;6543;48.836;10.092;2023-02-27T06:33:51;4.00;;;2.83;;
12956;SDS011;6543;48.836;10.092;2023-02-27T06:36:19;4.93;;;3.40;;
12956;SDS011;6543;48.836;10.092;2023-02-27T06:38:47;7.10;;;3.00;;
12956;SDS011;6543;48.836;10.092;2023-02-27T06:41:15;5.93;;;2.80;;
12956;SDS011;6543;48.836;10.092;2023-02-27T06:43:43;3.90;;;2.53;;
12956;SDS011;6543;48.836;10.092;2023-02-27T06:46:09;6.10;;;3.07;;
12956;SDS011;6543;48.836;10.092;2023-02-27T06:48:36;4.33;;;2.30;;
12956;SDS011;6543;48.836;10.092;2023-02-27T06:51:03;3.80;;;2.70;;
12956;SDS011;6543;48.836;10.092;2023-02-27T06:53:31;2.90;;;2.20;;
12956;SDS011;6543;48.836;10.092;2023-02-27T06:55:58;4.73;;;2.87;;
12956;SDS011;6543;48.836;10.092;2023-02-27T06:58:26;5.23;;;2.43;;
12956;SDS011;6543;48.836;10.092;2023-02-27T07:00:52;4.30;;;2.67;;
12956;SDS011;6543;48.836;10.092;2023-02-27T07:03:19;6.13;;;2.20;;
12956;SDS011;6543;48.836;10.092;2023-02-27T07:05:46;5.67;;;2.87;;
12956;SDS011;6543;48.836;10.092;2023-02-27T07:08:13;7.20;;;2.13;;
12956;SDS011;6543;48.836;10.092;2023-02-27T07:10:42;2.87;;;2.37;;
12956;SDS011;6543;48.836;10.092;2023-02-27T07:13:11;5.00;;;2.37;;
12956;SDS011;6543;48.836;10.092;2023-02-27T07:15:39;4.43;;;2.77;;
12956;SDS011;6543;48.836;10.092;2023-02-27T07:18:06;3.30;;;2.50;;
12956;SDS011;6543;48.836;10.092;2023-02-27T07:20:32;2.27;;;2.00;;
12956;SDS011;6543;48.836;10.092;2023-02-27T07:22:59;5.77;;;2.70;;
12956;SDS011;6543;48.836;10.092;2023-02-27T07:25:26;3.47;;;2.50;;
12956;SDS011;6543;48.836;10.092;2023-02-27T07:27:53;2.87;;;2.40;;
12956;SDS011;6543;48.836;10.092;2023-02-27T07:30:20;4.27;;;2.10;;
12956;SDS011;6543;48.836;10.092;2023-02-27T07:32:48;6.97;;;1.97;;
12956;SDS011;6543;48.836;10.092;2023-02-27T07:35:15;5.60;;;2.13;;
12956;SDS011;6543;48.836;10.092;2023-02-27T07:37:42;2.97;;;2.13;;
12956;SDS011;6543;48.836;10.092;2023-02-27T07:40:10;2.27;;;1.80;;
12956;SDS011;6543;48.836;10.092;2023-02-27T07:42:38;7.07;;;2.30;;
12956;SDS011;6543;48.836;10.092;2023-02-27T07:45:05;3.80;;;2.47;;
12956;SDS011;6543;48.836;10.092;2023-02-27T07:47:33;2.53;;;1.93;;
12956;SDS011;6543;48.836;10.092;2023-02-27T07:50:02;3.73;;;1.90;;
12956;SDS011;6543;48.836;10.092;2023-02-27T07:52:29;3.57;;;2.20;;
12956;SDS011;6543;48.836;10.092;2023-02-27T07:54:56;2.77;;;1.93;;
12956;SDS011;6543;48.836;10.092;2023-02-27T07:57:23;5.97;;;2.30;;
12956;SDS011;6543;48.836;10.092;2023-02-27T07:59:50;1.63;;;1.50;;
12956;SDS011;6543;48.836;10.092;2023-02-27T08:02:16;5.30;;;2.30;;
12956;SDS011;6543;48.836;10.092;2023-02-27T08:04:43;4.43;;;1.93;;
12956;SDS011;6543;48.836;10.092;2023-02-27T08:07:11;3.60;;;1.73;;
12956;SDS011;6543;48.836;10.092;2023-02-27T08:09:38;3.20;;;1.90;;
12956;SDS011;6543;48.836;10.092;2023-02-27T08:12:05;3.63;;;1.90;;
12956;SDS011;6543;48.836;10.092;2023-02-27T08:14:32;3.57;;;1.63;;
12956;SDS011;6543;48.836;10.092;2023-02-27T08:16:59;2.37;;;2.17;;
12956;SDS011;6543;48.836;10.092;2023-02-27T08:19:26;9.60;;;2.50;;
12956;SDS011;6543;48.836;10.092;2023-02-27T08:21:53;5.83;;;2.03;;
12956;SDS011;6543;48.836;10.092;2023-02-27T08:24:22;4.87;;;2.73;;
12956;SDS011;6543;48.836;10.092;2023-02-27T08:26:49;3.23;;;2.10;;
12956;SDS011;6543;48.836;10.092;2023-02-27T08:29:16;3.80;;;1.90;;
12956;SDS011;6543;48.836;10.092;2023-02-27T08:31:42;5.40;;;2.23;;
12956;SDS011;6543;48.836;10.092;2023-02-27T08:34:10;7.50;;;3.40;;
12956;SDS011;6543;48.836;10.092;2023-02-27T08:36:37;4.90;;;2.00;;
12956;SDS011;6543;48.836;10.092;2023-02-27T08:39:04;4.57;;;2.43;;
12956;SDS011;6543;48.836;10.092;2023-02-27T08:41:33;4.07;;;1.93;;
12956;SDS011;6543;48.836;10.092;2023-02-27T08:44:00;6.20;;;2.13;;
12956;SDS011;6543;48.836;10.092;2023-02-27T08:46:27;5.33;;;1.70;;
12956;SDS011;6543;48.836;10.092;2023-02-27T08:48:54;3.67;;;2.23;;
12956;SDS011;6543;48.836;10.092;2023-02-27T08:51:20;4.30;;;2.40;;
12956;SDS011;6543;48.836;10.092;2023-02-27T08:53:47;4.77;;;2.23;;
12956;SDS011;6543;48.836;10.092;2023-02-27T08:56:14;2.57;;;1.60;;
12956;SDS011;6543;48.836;10.092;2023-02-27T08:58:42;4.07;;;2.13;;
12956;SDS011;6543;48.836;10.092;2023-02-27T09:01:09;2.63;;;2.20;;
12956;SDS011;6543;48.836;10.092;2023-02-27T09:03:36;5.37;;;2.37;;
12956;SDS011;6543;48.836;10.092;2023-02-27T09:06:03;6.33;;;2.03;;
12956;SDS011;6543;48.836;10.092;2023-02-27T09:08:30;2.27;;;1.87;;
12956;SDS011;6543;48.836;10.092;2023-02-27T09:10:57;3.47;;;2.17;;
12956;SDS011;6543;48.836;10.092;2023-02-27T09:13:24;4.73;;;2.40;;
12956;SDS011;6543;48.836;10.092;2023-02-27T09:15:54;2.17;;;1.67;;
12956;SDS011;6543;48.836;10.092;2023-02-27T09:18:21;9.17;;;2.07;;
12956;SDS011;6543;48.836;10.092;2023-02-27T09:20:48;2.47;;;1.77;;
12956;SDS011;6543;48.836;10.092;2023-02-27T09:23:16;2.53;;;1.80;;
12956;SDS011;6543;48.836;10.092;2023-02-27T09:25:43;4.10;;;2.33;;
12956;SDS011;6543;48.836;10.092;2023-02-27T09:28:11;3.40;;;1.73;;
12956;SDS011;6543;48.836;10.092;2023-02-27T09:30:38;2.13;;;1.53;;
12956;SDS011;6543;48.836;10.092;2023-02-27T09:33:06;3.77;;;2.07;;
12956;SDS011;6543;48.836;10.092;2023-02-27T09:35:33;3.00;;;1.53;;
12956;SDS011;6543;48.836;10.092;2023-02-27T09:38:00;4.67;;;1.77;;
12956;SDS011;6543;48.836;10.092;2023-02-27T09:40:28;4.30;;;1.60;;
12956;SDS011;6543;48.836;10.092;2023-02-27T09:42:58;2.90;;;1.93;;
12956;SDS011;6543;48.836;10.092;2023-02-27T09:45:28;3.20;;;1.37;;
12956;SDS011;6543;48.836;10.092;2023-02-27T09:48:04;5.90;;;1.80;;
12956;SDS011;6543;48.836;10.092;2023-02-27T09:50:37;2.87;;;1.80;;
12956;SDS011;6543;48.836;10.092;2023-02-27T09:53:08;4.90;;;1.87;;
12956;SDS011;6543;48.836;10.092;2023-02-27T09:55:39;4.50;;;1.33;;
12956;SDS011;6543;48.836;10.092;2023-02-27T09:58:13;3.33;;;1.43;;
12956;SDS011;6543;48.836;10.092;2023-02-27T10:00:56;4.40;;;1.70;;
12956;SDS011;6543;48.836;10.092;2023-02-27T10:03:36;2.73;;;1.70;;
12956;SDS011;6543;48.836;10.092;2023-02-27T10:06:20;3.60;;;1.87;;
12956;SDS011;6543;48.836;10.092;2023-02-27T10:08:56;3.60;;;1.67;;
12956;SDS011;6543;48.836;10.092;2023-02-27T10:11:39;2.23;;;1.63;;
12956;SDS011;6543;48.836;10.092;2023-02-27T10:14:16;4.80;;;1.77;;
12956;SDS011;6543;48.836;10.092;2023-02-27T10:16:53;3.00;;;1.87;;
12956;SDS011;6543;48.836;10.092;2023-02-27T10:19:25;1.67;;;1.30;;
12956;SDS011;6543;48.836;10.092;2023-02-27T10:21:55;3.00;;;1.60;;
12956;SDS011;6543;48.836;10.092;2023-02-27T10:24:25;2.87;;;1.80;;
12956;SDS011;6543;48.836;10.092;2023-02-27T10:26:56;2.83;;;1.80;;
12956;SDS011;6543;48.836;10.092;2023-02-27T10:29:31;3.00;;;1.60;;
12956;SDS011;6543;48.836;10.092;2023-02-27T10:35:34;2.97;;;1.40;;
12956;SDS011;6543;48.836;10.092;2023-02-27T10:38:31;1.60;;;1.37;;
12956;SDS011;6543;48.836;10.092;2023-02-27T10:41:36;3.20;;;1.73;;
12956;SDS011;6543;48.836;10.092;2023-02-27T10:44:40;4.03;;;2.17;;
12956;SDS011;6543;48.836;10.092;2023-02-27T10:47:39;7.43;;;3.00;;
12956;SDS011;6543;48.836;10.092;2023-02-27T10:57:35;2.97;;;1.70;;
12956;SDS011;6543;48.836;10.092;2023-02-27T11:01:39;1.90;;;1.50;;
12956;SDS011;6543;48.836;10.092;2023-02-27T11:04:33;3.17;;;1.80;;
12956;SDS011;6543;48.836;10.092;2023-02-27T11:07:32;3.13;;;1.60;;
12956;SDS011;6543;48.836;10.092;2023-02-27T11:10:23;5.03;;;1.50;;
12956;SDS011;6543;48.836;10.092;2023-02-27T11:16:27;3.17;;;1.83;;
12956;SDS011;6543;48.836;10.092;2023-02-27T11:19:40;2.23;;;1.37;;
12956;SDS011;6543;48.836;10.092;2023-02-27T11:39:25;5.77;;;1.80;;
12956;SDS011;6543;48.836;10.092;2023-02-27T11:49:20;4.77;;;1.50;;
12956;SDS011;6543;48.836;10.092;2023-02-27T11:52:22;3.65;;;1.60;;
12956;SDS011;6543;48.836;10.092;2023-02-27T11:55:32;2.20;;;1.30;;
12956;SDS011;6543;48.836;10.092;2023-02-27T12:01:26;3.27;;;1.97;;
12956;SDS011;6543;48.836;10.092;2023-02-27T12:08:16;2.67;;;1.47;;
12956;SDS011;6543;48.836;10.092;2023-02-27T12:11:36;4.00;;;1.50;;
12956;SDS011;6543;48.836;10.092;2023-02-27T12:15:02;3.93;;;1.83;;
12956;SDS011;6543;48.836;10.092;2023-02-27T12:18:20;4.63;;;3.00;;
12956;SDS011;6543;48.836;10.092;2023-02-27T12:38:20;2.43;;;1.63;;
12956;SDS011;6543;48.836;10.092;2023-02-27T12:41:09;5.20;;;1.50;;
12956;SDS011;6543;48.836;10.092;2023-02-27T12:43:57;4.67;;;1.73;;
12956;SDS011;6543;48.836;10.092;2023-02-27T12:46:54;2.77;;;2.00;;
12956;SDS011;6543;48.836;10.092;2023-02-27T12:49:35;2.27;;;1.40;;
12956;SDS011;6543;48.836;10.092;2023-02-27T12:52:35;4.20;;;1.77;;
12956;SDS011;6543;48.836;10.092;2023-02-27T12:55:32;3.47;;;1.87;;
12956;SDS011;6543;48.836;10.092;2023-02-27T12:58:17;3.50;;;1.67;;
12956;SDS011;6543;48.836;10.092;2023-02-27T13:01:13;4.73;;;1.87;;
12956;SDS011;6543;48.836;10.092;2023-02-27T13:07:20;2.03;;;1.30;;
12956;SDS011;6543;48.836;10.092;2023-02-27T13:13:17;4.80;;;1.93;;
12956;SDS011;6543;48.836;10.092;2023-02-27T13:16:09;2.57;;;1.97;;
12956;SDS011;6543;48.836;10.092;2023-02-27T13:22:16;2.23;;;1.70;;
12956;SDS011;6543;48.836;10.092;2023-02-27T13:34:49;4.43;;;1.70;;
12956;SDS011;6543;48.836;10.092;2023-02-27T13:38:29;3.67;;;1.90;;
12956;SDS011;6543;48.836;10.092;2023-02-27T13:51:10;4.07;;;2.13;;
12956;SDS011;6543;48.836;10.092;2023-02-27T13:58:41;8.17;;;1.70;;
12956;SDS011;6543;48.836;10.092;2023-02-27T14:02:01;1.40;;;1.30;;
12956;SDS011;6543;48.836;10.092;2023-02-27T14:09:02;3.83;;;1.53;;
12956;SDS011;6543;48.836;10.092;2023-02-27T14:12:29;4.07;;;1.77;;
12956;SDS011;6543;48.836;10.092;2023-02-27T14:32:20;5.37;;;1.73;;
12956;SDS011;6543;48.836;10.092;2023-02-27T14:35:14;7.83;;;1.57;;
12956;SDS011;6543;48.836;10.092;2023-02-27T14:37:46;7.27;;;1.23;;
12956;SDS011;6543;48.836;10.092;2023-02-27T14:40:59;2.37;;;1.83;;
12956;SDS011;6543;48.836;10.092;2023-02-27T14:44:22;3.17;;;1.57;;
12956;SDS011;6543;48.836;10.092;2023-02-27T14:47:34;4.73;;;2.03;;
12956;SDS011;6543;48.836;10.092;2023-02-27T14:57:02;4.93;;;1.47;;
12956;SDS011;6543;48.836;10.092;2023-02-27T15:00:04;4.87;;;1.37;;
12956;SDS011;6543;48.836;10.092;2023-02-27T15:06:21;2.50;;;1.73;;
12956;SDS011;6543;48.836;10.092;2023-02-27T15:15:39;2.50;;;2.00;;
12956;SDS011;6543;48.836;10.092;2023-02-27T15:24:56;2.83;;;1.27;;
12956;SDS011;6543;48.836;10.092;2023-02-27T15:31:19;2.70;;;1.23;;
12956;SDS011;6543;48.836;10.092;2023-02-27T15:33:59;4.47;;;1.43;;
12956;SDS011;6543;48.836;10.092;2023-02-27T15:36:38;7.97;;;2.20;;
12956;SDS011;6543;48.836;10.092;2023-02-27T15:39:51;5.63;;;2.90;;
12956;SDS011;6543;48.836;10.092;2023-02-27T15:42:24;7.03;;;3.83;;
12956;SDS011;6543;48.836;10.092;2023-02-27T15:45:26;6.30;;;2.60;;
12956;SDS011;6543;48.836;10.092;2023-02-27T15:48:31;2.93;;;1.90;;
12956;SDS011;6543;48.836;10.092;2023-02-27T15:51:35;4.20;;;2.37;;
12956;SDS011;6543;48.836;10.092;2023-02-27T15:54:32;9.67;;;2.43;;
12956;SDS011;6543;48.836;10.092;2023-02-27T15:57:28;5.17;;;1.77;;
12956;SDS011;6543;48.836;10.092;2023-02-27T16:00:06;4.40;;;2.67;;
12956;SDS011;6543;48.836;10.092;2023-02-27T16:03:14;6.13;;;2.93;;
12956;SDS011;6543;48.836;10.092;2023-02-27T16:06:10;3.77;;;2.00;;
12956;SDS011;6543;48.836;10.092;2023-02-27T16:15:40;3.23;;;1.47;;
12956;SDS011;6543;48.836;10.092;2023-02-27T16:18:44;3.17;;;1.40;;
12956;SDS011;6543;48.836;10.092;2023-02-27T16:21:27;3.17;;;1.43;;
12956;SDS011;6543;48.836;10.092;2023-02-27T16:24:30;2.23;;;1.47;;
12956;SDS011;6543;48.836;10.092;2023-02-27T16:27:51;4.17;;;2.33;;
12956;SDS011;6543;48.836;10.092;2023-02-27T16:30:42;2.90;;;2.00;;
12956;SDS011;6543;48.836;10.092;2023-02-27T16:33:38;2.77;;;1.50;;
12956;SDS011;6543;48.836;10.092;2023-02-27T16:36:49;3.00;;;1.30;;
12956;SDS011;6543;48.836;10.092;2023-02-27T16:39:32;3.83;;;2.03;;
12956;SDS011;6543;48.836;10.092;2023-02-27T16:42:08;3.93;;;2.00;;
12956;SDS011;6543;48.836;10.092;2023-02-27T16:44:51;6.80;;;1.70;;
12956;SDS011;6543;48.836;10.092;2023-02-27T16:47:49;3.17;;;1.50;;
12956;SDS011;6543;48.836;10.092;2023-02-27T16:50:48;3.70;;;1.80;;
12956;SDS011;6543;48.836;10.092;2023-02-27T16:53:50;2.90;;;1.50;;
12956;SDS011;6543;48.836;10.092;2023-02-27T16:56:40;3.10;;;1.33;;
12956;SDS011;6543;48.836;10.092;2023-02-27T16:59:39;3.30;;;1.53;;
12956;SDS011;6543;48.836;10.092;2023-02-27T17:02:19;2.95;;;1.65;;
12956;SDS011;6543;48.836;10.092;2023-02-27T17:05:08;1.93;;;1.40;;
12956;SDS011;6543;48.836;10.092;2023-02-27T17:07:36;2.20;;;1.90;;
12956;SDS011;6543;48.836;10.092;2023-02-27T17:10:16;3.80;;;1.83;;
12956;SDS011;6543;48.836;10.092;2023-02-27T17:13:07;4.43;;;1.70;;
12956;SDS011;6543;48.836;10.092;2023-02-27T17:15:47;2.17;;;1.77;;
12956;SDS011;6543;48.836;10.092;2023-02-27T17:18:35;4.63;;;1.63;;
12956;SDS011;6543;48.836;10.092;2023-02-27T17:21:25;4.30;;;1.80;;
12956;SDS011;6543;48.836;10.092;2023-02-27T17:24:07;6.00;;;1.37;;
12956;SDS011;6543;48.836;10.092;2023-02-27T17:26:43;1.53;;;1.30;;
12956;SDS011;6543;48.836;10.092;2023-02-27T17:29:25;2.73;;;1.63;;
12956;SDS011;6543;48.836;10.092;2023-02-27T17:31:56;3.63;;;1.47;;
12956;SDS011;6543;48.836;10.092;2023-02-27T17:34:32;5.70;;;2.13;;
12956;SDS011;6543;48.836;10.092;2023-02-27T17:37:06;4.40;;;2.23;;
12956;SDS011;6543;48.836;10.092;2023-02-27T17:39:54;4.67;;;2.33;;
12956;SDS011;6543;48.836;10.092;2023-02-27T17:42:36;1.77;;;1.30;;
12956;SDS011;6543;48.836;10.092;2023-02-27T17:45:11;5.07;;;3.03;;
12956;SDS011;6543;48.836;10.092;2023-02-27T17:47:39;4.13;;;2.20;;
12956;SDS011;6543;48.836;10.092;2023-02-27T17:50:09;2.70;;;1.50;;
12956;SDS011;6543;48.836;10.092;2023-02-27T17:52:47;3.43;;;1.50;;
12956;SDS011;6543;48.836;10.092;2023-02-27T17:55:29;1.40;;;1.30;;
12956;SDS011;6543;48.836;10.092;2023-02-27T17:58:05;3.03;;;1.90;;
12956;SDS011;6543;48.836;10.092;2023-02-27T18:00:43;3.47;;;1.70;;
12956;SDS011;6543;48.836;10.092;2023-02-27T18:03:10;2.03;;;1.77;;
12956;SDS011;6543;48.836;10.092;2023-02-27T18:05:37;3.27;;;2.17;;
12956;SDS011;6543;48.836;10.092;2023-02-27T18:08:06;2.60;;;1.60;;
12956;SDS011;6543;48.836;10.092;2023-02-27T18:10:37;4.03;;;2.80;;
12956;SDS011;6543;48.836;10.092;2023-02-27T18:13:10;5.63;;;2.03;;
12956;SDS011;6543;48.836;10.092;2023-02-27T18:15:38;1.93;;;1.67;;
12956;SDS011;6543;48.836;10.092;2023-02-27T18:18:21;2.97;;;2.13;;
12956;SDS011;6543;48.836;10.092;2023-02-27T18:21:04;3.13;;;2.83;;
12956;SDS011;6543;48.836;10.092;2023-02-27T18:23:53;3.33;;;2.10;;
12956;SDS011;6543;48.836;10.092;2023-02-27T18:26:53;3.80;;;2.27;;
12956;SDS011;6543;48.836;10.092;2023-02-27T18:29:24;5.33;;;2.70;;
12956;SDS011;6543;48.836;10.092;2023-02-27T18:31:53;3.50;;;2.20;;
12956;SDS011;6543;48.836;10.092;2023-02-27T18:34:23;3.47;;;2.30;;
12956;SDS011;6543;48.836;10.092;2023-02-27T18:36:59;4.93;;;2.70;;
12956;SDS011;6543;48.836;10.092;2023-02-27T18:39:37;3.47;;;2.20;;
12956;SDS011;6543;48.836;10.092;2023-02-27T18:42:07;3.40;;;1.87;;
12956;SDS011;6543;48.836;10.092;2023-02-27T18:44:40;3.63;;;1.93;;
12956;SDS011;6543;48.836;10.092;2023-02-27T18:47:07;5.20;;;2.60;;
12956;SDS011;6543;48.836;10.092;2023-02-27T18:49:36;3.23;;;2.23;;
12956;SDS011;6543;48.836;10.092;2023-02-27T18:52:03;4.37;;;2.50;;
12956;SDS011;6543;48.836;10.092;2023-02-27T18:54:30;4.17;;;3.00;;
12956;SDS011;6543;48.836;10.092;2023-02-27T18:57:00;3.37;;;2.07;;